Terminal Aerodrome Forecast
Issued by NWS Charleston, WV

Current Version | Previous Version | Graphics & Text | Print | Product List | Glossary Off
Versions: 1 2 3 4 5 6 7 8 9 10 11 12 13 14 15 16 17 18 19 20 21 22

314
FTUS41 KRLX 111135
TAFCRW
TAF
KCRW 111135Z 1112/1212 10003KT P6SM BKN150
     FM111900 16005KT P6SM SCT070
     FM120300 18005KT 5SM -RA OVC040
     FM120800 21005KT 2SM -RA OVC015
     FM121000 21005KT 3SM -RA OVC008=

USA.gov is the U.S. government's official web portal to all federal, state and local government web resources and services.